Time;durP1;ratioP1;P1;durP2;ratioP2;P2;SDS_P1;SDS_P2;PMS_P1;PMS_P2;Temp;Humidity;BMP_temperature;BMP_pressure;BME280_temperature;BME280_humidity;BME280_pressure;Samples;Min_cycle;Max_cycle;Signal;HPM_P1;HPM_P2
2023/12/20 00:01:16;;;;;;;;;;;;;;;8.63;100.00;98270.10;68050;1275;1016494;-77
2023/12/20 00:04:20;;;;;;;;;;;;;;;8.57;100.00;98270.83;68036;1275;1016419;-78
2023/12/20 00:07:22;;;;;;;;;;;;;;;8.62;100.00;98278.04;68044;1275;1016184;-78
2023/12/20 00:10:25;;;;;;;;;;;;;;;8.72;100.00;98277.38;68021;1275;1016487;-77
2023/12/20 00:13:27;;;;;;;;;;;;;;;8.92;100.00;98281.95;68011;1275;1016633;-77
2023/12/20 00:16:31;;;;;;;;;;;;;;;8.99;100.00;98277.80;68011;1275;1016403;-78
2023/12/20 00:19:35;;;;;;;;;;;;;;;8.94;100.00;98275.68;68063;1275;1016498;-77
2023/12/20 00:22:37;;;;;;;;;;;;;;;8.94;100.00;98269.23;68043;1275;1016213;-77
2023/12/20 00:25:40;;;;;;;;;;;;;;;8.94;100.00;98266.64;68045;1275;1016304;-76
2023/12/20 00:28:43;;;;;;;;;;;;;;;8.91;100.00;98260.86;68079;1275;1016439;-77
2023/12/20 00:31:46;;;;;;;;;;;;;;;8.77;100.00;98263.67;68028;1275;1016576;-76
2023/12/20 00:34:48;;;;;;;;;;;;;;;8.76;100.00;98262.67;68074;1275;1016276;-77
2023/12/20 00:37:51;;;;;;;;;;;;;;;8.79;100.00;98259.90;68036;1275;1018313;-78
2023/12/20 00:40:53;;;;;;;;;;;;;;;8.76;100.00;98252.78;68028;1275;1017069;-77
2023/12/20 00:43:56;;;;;;;;;;;;;;;8.87;100.00;98258.35;68054;1275;1016357;-77
2023/12/20 00:46:59;;;;;;;;;;;;;;;8.97;100.00;98258.02;68032;1275;1018957;-77
2023/12/20 00:50:01;;;;;;;;;;;;;;;8.92;100.00;98252.80;68028;1275;1016007;-77
2023/12/20 00:53:05;;;;;;;;;;;;;;;8.89;100.00;98254.23;67988;1275;1016206;-77
2023/12/20 00:56:08;;;;;;;;;;;;;;;8.80;100.00;98252.64;67978;1275;1018205;-77
2023/12/20 00:59:10;;;;;;;;;;;;;;;8.81;100.00;98250.84;68054;1275;1016521;-78
2023/12/20 01:02:13;;;;;;;;;;;;;;;8.75;100.00;98255.94;68030;1275;1016693;-78
2023/12/20 01:05:15;;;;;;;;;;;;;;;8.86;100.00;98248.85;68058;1275;1017046;-77
2023/12/20 01:08:18;;;;;;;;;;;;;;;8.84;100.00;98238.30;67997;1275;1015970;-78
2023/12/20 01:11:21;;;;;;;;;;;;;;;8.73;100.00;98239.70;68037;1275;1016663;-78
2023/12/20 01:14:24;;;;;;;;;;;;;;;8.62;100.00;98237.96;68069;1275;1016467;-78
2023/12/20 01:17:26;;;;;;;;;;;;;;;8.66;100.00;98231.59;68005;1275;1016451;-77
2023/12/20 01:20:29;;;;;;;;;;;;;;;8.72;100.00;98229.14;67997;1275;1016429;-78
2023/12/20 01:23:31;;;;;;;;;;;;;;;8.74;100.00;98227.46;68042;1275;1016239;-78
2023/12/20 01:26:34;;;;;;;;;;;;;;;8.54;100.00;98225.70;67990;1275;1016681;-79
2023/12/20 01:29:36;;;;;;;;;;;;;;;8.46;100.00;98218.84;67954;1275;1016106;-78
2023/12/20 01:32:39;;;;;;;;;;;;;;;8.45;100.00;98213.55;68030;1275;1016437;-78
2023/12/20 01:35:42;;;;;;;;;;;;;;;8.26;100.00;98207.72;68062;1275;1018785;-78
2023/12/20 01:38:44;;;;;;;;;;;;;;;8.25;100.00;98196.76;67989;1275;1016553;-77
2023/12/20 01:41:47;;;;;;;;;;;;;;;8.39;100.00;98188.06;68032;1275;1016594;-79
2023/12/20 01:44:50;;;;;;;;;;;;;;;8.27;100.00;98179.94;68067;1275;1016374;-77
2023/12/20 01:47:52;;;;;;;;;;;;;;;8.27;100.00;98176.80;68036;1275;1016435;-77
2023/12/20 01:50:55;;;;;;;;;;;;;;;8.19;100.00;98169.42;68067;1275;1016380;-77
2023/12/20 01:53:58;;;;;;;;;;;;;;;8.33;100.00;98163.04;68014;1275;1016410;-77
2023/12/20 01:57:01;;;;;;;;;;;;;;;8.39;100.00;98148.34;68050;1275;1016221;-76
2023/12/20 02:00:04;;;;;;;;;;;;;;;8.43;100.00;98147.44;68031;1275;1016700;-78
2023/12/20 02:03:06;;;;;;;;;;;;;;;8.50;100.00;98144.95;68013;1275;1016489;-78
2023/12/20 02:06:10;;;;;;;;;;;;;;;8.68;100.00;98137.03;68006;1275;1016141;-77
2023/12/20 02:09:12;;;;;;;;;;;;;;;8.54;100.00;98136.30;67959;1275;1016315;-77
2023/12/20 02:12:15;;;;;;;;;;;;;;;8.66;100.00;98126.00;68016;1275;1016134;-77
2023/12/20 02:15:17;;;;;;;;;;;;;;;8.75;100.00;98130.23;68045;1275;1016348;-78
2023/12/20 02:18:20;;;;;;;;;;;;;;;8.67;100.00;98136.55;67964;1275;1016356;-77
2023/12/20 02:21:23;;;;;;;;;;;;;;;8.81;100.00;98132.14;67989;1275;1016437;-77
2023/12/20 02:24:25;;;;;;;;;;;;;;;8.73;100.00;98138.95;68080;1275;1018923;-76
2023/12/20 02:27:28;;;;;;;;;;;;;;;8.51;100.00;98141.18;68058;1275;1016456;-77
2023/12/20 02:30:30;;;;;;;;;;;;;;;8.55;100.00;98137.63;68011;1275;1016383;-77
2023/12/20 02:33:33;;;;;;;;;;;;;;;8.56;100.00;98139.30;68019;1275;1016452;-76
2023/12/20 02:36:35;;;;;;;;;;;;;;;8.43;100.00;98141.02;68042;1275;1016294;-76
2023/12/20 02:39:38;;;;;;;;;;;;;;;8.49;100.00;98130.54;68015;1275;1016476;-78
2023/12/20 02:42:40;;;;;;;;;;;;;;;8.46;100.00;98135.38;67998;1275;1016486;-77
2023/12/20 02:45:43;;;;;;;;;;;;;;;8.49;100.00;98137.98;68041;1275;1016185;-78
2023/12/20 02:48:47;;;;;;;;;;;;;;;8.57;100.00;98125.98;68045;1275;1016007;-77
2023/12/20 02:51:51;;;;;;;;;;;;;;;8.56;100.00;98117.16;68032;1275;1016343;-76
2023/12/20 02:54:54;;;;;;;;;;;;;;;8.52;100.00;98111.55;68032;1275;1016545;-76
2023/12/20 02:57:56;;;;;;;;;;;;;;;8.58;100.00;98107.33;67987;1275;1016256;-78
2023/12/20 03:00:59;;;;;;;;;;;;;;;8.66;100.00;98106.95;68029;1275;1016492;-77
2023/12/20 03:04:03;;;;;;;;;;;;;;;8.81;100.00;98103.73;68028;1275;1016199;-78
2023/12/20 03:07:05;;;;;;;;;;;;;;;8.69;100.00;98102.96;68041;1275;1016163;-77
2023/12/20 03:10:09;;;;;;;;;;;;;;;8.73;100.00;98102.00;68002;1275;1016263;-77
2023/12/20 03:13:13;;;;;;;;;;;;;;;8.74;100.00;98105.05;68054;1275;1016696;-78
2023/12/20 03:16:16;;;;;;;;;;;;;;;8.71;100.00;98105.44;68005;1275;1016439;-77
2023/12/20 03:19:19;;;;;;;;;;;;;;;8.54;100.00;98109.66;68029;1275;1016395;-77
2023/12/20 03:22:22;;;;;;;;;;;;;;;8.60;100.00;98104.89;68012;1275;1017658;-78
2023/12/20 03:25:25;;;;;;;;;;;;;;;8.65;100.00;98105.30;68005;1275;1016064;-75
2023/12/20 03:28:27;;;;;;;;;;;;;;;8.66;100.00;98104.69;68030;1275;1017894;-78
2023/12/20 03:31:30;;;;;;;;;;;;;;;8.59;100.00;98099.23;68049;1275;1016322;-77
2023/12/20 03:34:32;;;;;;;;;;;;;;;8.64;100.00;98095.60;67988;1275;1017101;-77
2023/12/20 03:37:35;;;;;;;;;;;;;;;8.75;100.00;98095.78;68009;1275;1015885;-78
2023/12/20 03:40:38;;;;;;;;;;;;;;;9.03;100.00;98090.64;68042;1275;1016852;-77
2023/12/20 03:43:40;;;;;;;;;;;;;;;9.03;100.00;98089.38;68042;1275;1016458;-77
2023/12/20 03:46:43;;;;;;;;;;;;;;;8.89;100.00;98093.10;68018;1275;1016464;-77
2023/12/20 03:49:45;;;;;;;;;;;;;;;8.64;100.00;98090.73;68019;1275;1015994;-76
2023/12/20 03:52:48;;;;;;;;;;;;;;;8.64;100.00;98090.16;68046;1275;1016293;-77
2023/12/20 03:55:50;;;;;;;;;;;;;;;8.62;100.00;98091.73;68049;1275;1016008;-77
2023/12/20 03:58:53;;;;;;;;;;;;;;;8.64;100.00;98092.42;68017;1275;1016242;-76
2023/12/20 04:01:56;;;;;;;;;;;;;;;8.58;100.00;98097.05;67978;1275;1016404;-77
2023/12/20 04:04:58;;;;;;;;;;;;;;;8.46;100.00;98100.91;68059;1275;1016225;-77
2023/12/20 04:08:04;;;;;;;;;;;;;;;8.48;100.00;98096.41;68007;1275;1016552;-77
2023/12/20 04:11:06;;;;;;;;;;;;;;;8.59;100.00;98097.67;68080;1275;1016306;-77
2023/12/20 04:14:10;;;;;;;;;;;;;;;8.74;100.00;98094.92;68075;1275;1016322;-77
2023/12/20 04:17:13;;;;;;;;;;;;;;;8.83;100.00;98098.22;68028;1275;1015958;-78
2023/12/20 04:20:15;;;;;;;;;;;;;;;8.88;100.00;98094.73;68007;1275;1016755;-78
2023/12/20 04:23:19;;;;;;;;;;;;;;;8.96;100.00;98092.23;67982;1275;1018809;-78
2023/12/20 04:26:25;;;;;;;;;;;;;;;8.89;100.00;98089.45;68026;1275;1016341;-78
2023/12/20 04:29:27;;;;;;;;;;;;;;;8.87;100.00;98096.02;68043;1275;1018414;-78
2023/12/20 04:32:30;;;;;;;;;;;;;;;8.72;100.00;98096.48;67969;1275;1018048;-78
2023/12/20 04:35:32;;;;;;;;;;;;;;;8.55;100.00;98096.69;67968;1275;1016461;-77
2023/12/20 04:38:35;;;;;;;;;;;;;;;8.69;100.00;98092.13;68004;1275;1016384;-78
2023/12/20 04:41:38;;;;;;;;;;;;;;;8.75;100.00;98094.52;67985;1275;1016316;-78
2023/12/20 04:44:40;;;;;;;;;;;;;;;8.82;100.00;98089.88;67988;1275;1016334;-77
2023/12/20 04:47:43;;;;;;;;;;;;;;;8.78;100.00;98094.50;68027;1275;1016404;-77
2023/12/20 04:50:46;;;;;;;;;;;;;;;8.76;100.00;98092.04;68027;1275;1016477;-77
2023/12/20 04:53:48;;;;;;;;;;;;;;;8.90;100.00;98087.98;67991;1275;1017273;-78
2023/12/20 04:56:51;;;;;;;;;;;;;;;8.89;100.00;98085.95;68014;1275;1019512;-78
2023/12/20 04:59:53;;;;;;;;;;;;;;;8.83;100.00;98088.64;68030;1275;1018946;-78
2023/12/20 05:02:56;;;;;;;;;;;;;;;8.68;100.00;98085.77;68003;1275;1016110;-77
2023/12/20 05:05:59;;;;;;;;;;;;;;;8.55;100.00;98087.11;68015;1275;1018412;-77
2023/12/20 05:09:01;;;;;;;;;;;;;;;8.70;100.00;98078.81;68026;1275;1016569;-78
2023/12/20 05:12:04;;;;;;;;;;;;;;;8.70;100.00;98089.61;68033;1275;1016337;-77
2023/12/20 05:15:06;;;;;;;;;;;;;;;8.64;100.00;98083.73;67990;1275;1016358;-77
2023/12/20 05:18:09;;;;;;;;;;;;;;;8.66;100.00;98086.56;68034;1275;1017969;-78
2023/12/20 05:21:11;;;;;;;;;;;;;;;8.70;100.00;98090.31;68025;1275;1016442;-76
2023/12/20 05:24:14;;;;;;;;;;;;;;;8.66;100.00;98096.51;67992;1275;1016437;-78
2023/12/20 05:27:17;;;;;;;;;;;;;;;8.55;100.00;98092.71;65513;1275;5380064;-77
2023/12/20 05:30:19;;;;;;;;;;;;;;;8.54;100.00;98087.51;68004;1275;1016676;-79
2023/12/20 05:33:30;;;;;;;;;;;;;;;8.52;100.00;98088.16;67970;1275;1016405;-79
2023/12/20 05:36:33;;;;;;;;;;;;;;;8.48;100.00;98083.02;67977;1275;1016359;-78
2023/12/20 05:39:36;;;;;;;;;;;;;;;8.42;100.00;98085.10;68045;1275;1016390;-78
2023/12/20 05:42:38;;;;;;;;;;;;;;;8.41;100.00;98086.58;68036;1275;1016433;-78
2023/12/20 05:45:42;;;;;;;;;;;;;;;8.41;100.00;98086.42;67980;1275;1015817;-76
2023/12/20 05:48:45;;;;;;;;;;;;;;;8.40;100.00;98087.30;68003;1275;1017984;-78
2023/12/20 05:51:48;;;;;;;;;;;;;;;8.50;100.00;98079.75;68036;1275;1015794;-78
2023/12/20 05:54:50;;;;;;;;;;;;;;;8.54;100.00;98079.34;68013;1275;1016455;-78
2023/12/20 05:57:53;;;;;;;;;;;;;;;8.39;100.00;98074.86;67993;1275;1016354;-78
2023/12/20 06:00:56;;;;;;;;;;;;;;;8.33;100.00;98074.91;68053;1275;1016275;-78
2023/12/20 06:03:58;;;;;;;;;;;;;;;8.39;100.00;98066.16;68057;1275;1016364;-77
2023/12/20 06:07:01;;;;;;;;;;;;;;;8.39;100.00;98061.27;67978;1275;1016193;-78
2023/12/20 06:10:03;;;;;;;;;;;;;;;8.35;100.00;98052.48;68015;1275;1016869;-78
2023/12/20 06:13:06;;;;;;;;;;;;;;;8.38;100.00;98057.52;68033;1275;1016151;-78
2023/12/20 06:16:09;;;;;;;;;;;;;;;8.42;100.00;98050.06;67981;1275;1016807;-76
2023/12/20 06:19:12;;;;;;;;;;;;;;;8.43;100.00;98051.59;68051;1275;1018771;-77
2023/12/20 06:22:14;;;;;;;;;;;;;;;8.40;100.00;98047.11;67998;1275;1016343;-77
2023/12/20 06:25:17;;;;;;;;;;;;;;;8.40;100.00;98052.87;68012;1275;1016292;-77
2023/12/20 06:28:20;;;;;;;;;;;;;;;8.41;100.00;98051.59;68028;1275;1016239;-74
2023/12/20 06:31:23;;;;;;;;;;;;;;;8.30;100.00;98051.76;68023;1275;1017764;-76
2023/12/20 06:34:25;;;;;;;;;;;;;;;8.37;100.00;98047.43;67969;1275;1016126;-77
2023/12/20 06:37:28;;;;;;;;;;;;;;;8.34;100.00;98055.69;68057;1275;1016395;-78
2023/12/20 06:40:30;;;;;;;;;;;;;;;8.36;100.00;98050.34;68072;1275;1016427;-77
2023/12/20 06:43:33;;;;;;;;;;;;;;;8.39;100.00;98054.48;67991;1275;1017537;-77
2023/12/20 06:46:36;;;;;;;;;;;;;;;8.44;100.00;98058.52;68025;1275;1016449;-78
2023/12/20 06:49:38;;;;;;;;;;;;;;;8.28;100.00;98060.40;68024;1275;1016278;-77
2023/12/20 06:52:41;;;;;;;;;;;;;;;8.29;100.00;98058.08;67996;1275;1016233;-77
2023/12/20 06:55:43;;;;;;;;;;;;;;;8.24;100.00;98059.41;67980;1275;1016122;-77
2023/12/20 06:58:46;;;;;;;;;;;;;;;8.07;100.00;98061.55;68021;1275;1016380;-76
2023/12/20 07:01:49;;;;;;;;;;;;;;;8.14;100.00;98061.97;68011;1275;1016402;-77
2023/12/20 07:04:52;;;;;;;;;;;;;;;8.04;100.00;98069.23;67972;1275;1016504;-78
2023/12/20 07:07:54;;;;;;;;;;;;;;;8.07;100.00;98073.23;68051;1275;1016246;-78
2023/12/20 07:10:57;;;;;;;;;;;;;;;8.11;100.00;98076.79;68006;1275;1016318;-77
2023/12/20 07:14:00;;;;;;;;;;;;;;;8.14;100.00;98071.20;68024;1275;1016321;-77
2023/12/20 07:17:02;;;;;;;;;;;;;;;8.08;100.00;98071.41;68047;1275;1016344;-78
2023/12/20 07:20:06;;;;;;;;;;;;;;;8.05;100.00;98071.58;68039;1275;1016364;-77
2023/12/20 07:23:09;;;;;;;;;;;;;;;8.06;100.00;98070.68;68040;1275;1016521;-77
2023/12/20 07:26:12;;;;;;;;;;;;;;;8.07;100.00;98075.32;68041;1275;1016674;-77
2023/12/20 07:29:14;;;;;;;;;;;;;;;8.11;100.00;98077.80;68030;1275;1016492;-77
2023/12/20 07:32:17;;;;;;;;;;;;;;;8.18;100.00;98080.53;67949;1275;1015950;-75
2023/12/20 07:35:20;;;;;;;;;;;;;;;8.14;100.00;98082.52;68022;1275;1016418;-77
2023/12/20 07:38:22;;;;;;;;;;;;;;;8.31;100.00;98083.55;68035;1275;1016254;-77
2023/12/20 07:41:28;;;;;;;;;;;;;;;8.30;100.00;98085.55;68036;1275;1016183;-77
2023/12/20 07:44:31;;;;;;;;;;;;;;;8.28;100.00;98087.02;68007;1275;1016370;-78
2023/12/20 07:47:34;;;;;;;;;;;;;;;8.28;100.00;98086.30;68014;1275;1018765;-78
2023/12/20 07:50:36;;;;;;;;;;;;;;;8.19;100.00;98087.80;68038;1275;1016522;-77
2023/12/20 07:53:39;;;;;;;;;;;;;;;8.21;100.00;98091.34;68052;1275;1016418;-76
2023/12/20 07:57:02;;;;;;;;;;;;;;;8.20;100.00;98090.01;68004;1275;1016425;-77
2023/12/20 08:00:05;;;;;;;;;;;;;;;8.17;100.00;98086.70;68056;1275;1016473;-79
2023/12/20 08:03:08;;;;;;;;;;;;;;;7.98;100.00;98082.63;68008;1275;1016378;-78
2023/12/20 08:06:10;;;;;;;;;;;;;;;8.14;100.00;98081.64;68004;1275;1016413;-78
2023/12/20 08:09:13;;;;;;;;;;;;;;;8.26;100.00;98082.32;68024;1275;1015923;-77
2023/12/20 08:12:16;;;;;;;;;;;;;;;8.32;100.00;98078.92;67995;1275;1016414;-77
2023/12/20 08:15:21;;;;;;;;;;;;;;;8.38;100.00;98079.27;68050;1275;1016463;-78
2023/12/20 08:18:23;;;;;;;;;;;;;;;8.32;100.00;98087.82;67983;1275;1017534;-78
2023/12/20 08:21:26;;;;;;;;;;;;;;;8.34;100.00;98088.08;67967;1275;1016409;-76
2023/12/20 08:24:28;;;;;;;;;;;;;;;8.38;100.00;98091.13;68035;1275;1016460;-77
2023/12/20 08:27:32;;;;;;;;;;;;;;;8.20;100.00;98091.23;67992;1275;1015832;-78
2023/12/20 08:30:34;;;;;;;;;;;;;;;8.16;100.00;98086.25;68029;1275;1016535;-78
2023/12/20 08:33:37;;;;;;;;;;;;;;;8.26;100.00;98081.40;68017;1275;1016396;-78
2023/12/20 08:36:40;;;;;;;;;;;;;;;8.28;100.00;98085.44;67994;1275;1016573;-77
2023/12/20 08:39:44;;;;;;;;;;;;;;;8.30;100.00;98084.13;68007;1275;1016163;-78
2023/12/20 08:42:47;;;;;;;;;;;;;;;8.11;100.00;98085.34;68030;1275;1016426;-78
2023/12/20 08:45:49;;;;;;;;;;;;;;;7.98;100.00;98088.88;68057;1275;1016441;-78
2023/12/20 08:48:52;;;;;;;;;;;;;;;8.00;100.00;98092.10;67974;1275;1016479;-78
2023/12/20 08:51:54;;;;;;;;;;;;;;;8.01;100.00;98094.17;67970;1275;1018768;-78
2023/12/20 08:54:57;;;;;;;;;;;;;;;8.05;100.00;98087.42;68049;1275;1016092;-79
2023/12/20 08:57:59;;;;;;;;;;;;;;;8.12;100.00;98085.60;68017;1275;1016462;-77
2023/12/20 09:01:02;;;;;;;;;;;;;;;8.29;100.00;98094.83;67973;1275;1016350;-77
2023/12/20 09:04:06;;;;;;;;;;;;;;;8.21;100.00;98099.15;68024;1275;1016075;-77
2023/12/20 09:07:10;;;;;;;;;;;;;;;8.14;100.00;98093.86;67990;1275;1016433;-77
2023/12/20 09:10:13;;;;;;;;;;;;;;;8.02;100.00;98094.27;68026;1275;1018221;-78
2023/12/20 09:13:15;;;;;;;;;;;;;;;7.81;100.00;98094.84;68036;1275;1016416;-77
2023/12/20 09:16:18;;;;;;;;;;;;;;;7.83;100.00;98090.86;67969;1275;1016284;-77
2023/12/20 09:19:20;;;;;;;;;;;;;;;7.81;100.00;98093.59;68027;1275;1016225;-78
2023/12/20 09:22:23;;;;;;;;;;;;;;;7.75;100.00;98097.98;68047;1275;1019506;-77
2023/12/20 09:25:25;;;;;;;;;;;;;;;7.82;100.00;98098.09;67992;1275;1016395;-78
2023/12/20 09:28:28;;;;;;;;;;;;;;;7.84;100.00;98103.73;68021;1275;1016436;-82
2023/12/20 09:31:31;;;;;;;;;;;;;;;7.70;100.00;98101.41;67999;1275;1016468;-78
2023/12/20 09:34:33;;;;;;;;;;;;;;;7.54;100.00;98103.95;68027;1275;1016213;-78
2023/12/20 09:37:36;;;;;;;;;;;;;;;7.47;100.00;98094.95;68026;1275;1015742;-78
2023/12/20 09:40:38;;;;;;;;;;;;;;;7.20;100.00;98092.06;67981;1275;1015748;-78
2023/12/20 09:43:41;;;;;;;;;;;;;;;7.18;100.00;98086.91;68031;1275;1018146;-77
2023/12/20 09:46:44;;;;;;;;;;;;;;;7.15;100.00;98083.45;68063;1275;1016449;-77
2023/12/20 09:49:46;;;;;;;;;;;;;;;7.12;100.00;98072.48;68044;1275;1016513;-76
2023/12/20 09:52:49;;;;;;;;;;;;;;;7.11;100.00;98070.82;67994;1275;1016033;-77
2023/12/20 09:55:51;;;;;;;;;;;;;;;7.10;100.00;98071.06;68041;1275;1016588;-77
2023/12/20 09:58:54;;;;;;;;;;;;;;;7.12;100.00;98066.05;68049;1275;1016182;-77
2023/12/20 10:01:57;;;;;;;;;;;;;;;7.51;100.00;98061.16;68008;1275;1016522;-77
2023/12/20 10:05:00;;;;;;;;;;;;;;;7.61;100.00;98058.59;68045;1275;1016301;-77
2023/12/20 10:08:03;;;;;;;;;;;;;;;7.69;100.00;98060.58;68016;1275;1016202;-78
2023/12/20 10:11:05;;;;;;;;;;;;;;;7.97;100.00;98058.00;68011;1275;1016304;-77
2023/12/20 10:14:09;;;;;;;;;;;;;;;7.87;100.00;98054.44;67988;1275;1016455;-77
2023/12/20 10:17:11;;;;;;;;;;;;;;;7.82;100.00;98054.42;68069;1275;1017559;-78
2023/12/20 10:20:14;;;;;;;;;;;;;;;7.78;100.00;98050.45;68059;1275;1016407;-76
2023/12/20 10:23:18;;;;;;;;;;;;;;;8.01;100.00;98047.43;68002;1275;1015880;-77
2023/12/20 10:26:21;;;;;;;;;;;;;;;8.06;100.00;98050.98;68010;1275;1016387;-78
2023/12/20 10:29:23;;;;;;;;;;;;;;;7.85;100.00;98049.48;68055;1275;1016350;-78
2023/12/20 10:32:26;;;;;;;;;;;;;;;7.74;100.00;98052.10;68068;1275;1016725;-77
2023/12/20 10:35:29;;;;;;;;;;;;;;;7.79;100.00;98048.99;68058;1275;1016421;-76
2023/12/20 10:38:32;;;;;;;;;;;;;;;7.72;100.00;98043.67;68067;1275;1018352;-76
2023/12/20 10:41:41;;;;;;;;;;;;;;;7.88;100.00;98041.83;68005;1275;1016392;-77
2023/12/20 10:44:43;;;;;;;;;;;;;;;7.36;100.00;98043.77;68038;1275;1016618;-77
2023/12/20 10:47:46;;;;;;;;;;;;;;;7.31;100.00;98039.05;68050;1275;1016742;-77
2023/12/20 10:50:48;;;;;;;;;;;;;;;7.58;100.00;98043.65;68051;1275;1016291;-78
2023/12/20 10:53:51;;;;;;;;;;;;;;;7.47;100.00;98037.04;67990;1275;1016352;-78
2023/12/20 10:56:53;;;;;;;;;;;;;;;7.50;100.00;98042.59;68053;1275;1016692;-77
2023/12/20 10:59:57;;;;;;;;;;;;;;;7.43;100.00;98038.98;68032;1275;1016212;-78
2023/12/20 11:02:59;;;;;;;;;;;;;;;7.38;100.00;98046.82;68020;1275;1016307;-76
2023/12/20 11:06:02;;;;;;;;;;;;;;;7.25;100.00;98044.95;68039;1275;1016954;-78
2023/12/20 11:09:09;;;;;;;;;;;;;;;7.35;100.00;98034.44;68005;1275;1016613;-78
2023/12/20 11:12:12;;;;;;;;;;;;;;;7.31;100.00;98037.64;68049;1275;1016167;-78
2023/12/20 11:15:15;;;;;;;;;;;;;;;7.25;100.00;98040.77;68015;1275;1016474;-77
2023/12/20 11:18:18;;;;;;;;;;;;;;;7.43;100.00;98041.08;68045;1275;1016339;-77
2023/12/20 11:21:21;;;;;;;;;;;;;;;7.36;100.00;98033.67;68009;1275;1016490;-78
2023/12/20 11:24:25;;;;;;;;;;;;;;;7.26;100.00;98029.25;68044;1275;1016160;-78
2023/12/20 11:27:28;;;;;;;;;;;;;;;7.36;100.00;98021.35;68063;1275;1016576;-78
2023/12/20 11:30:30;;;;;;;;;;;;;;;7.45;100.00;98013.84;68051;1275;1016184;-79
2023/12/20 11:33:33;;;;;;;;;;;;;;;7.35;100.00;98015.34;68035;1275;1016467;-77
2023/12/20 11:36:36;;;;;;;;;;;;;;;7.30;100.00;98014.27;67963;1275;1016484;-78
2023/12/20 11:39:38;;;;;;;;;;;;;;;7.34;100.00;98016.80;68045;1275;1016288;-77
2023/12/20 11:42:41;;;;;;;;;;;;;;;7.49;100.00;98011.48;68027;1275;1016448;-77
2023/12/20 11:45:44;;;;;;;;;;;;;;;7.40;100.00;98019.17;68013;1275;1016288;-78
2023/12/20 11:48:47;;;;;;;;;;;;;;;7.77;100.00;98019.20;68055;1275;1016435;-77
2023/12/20 11:51:50;;;;;;;;;;;;;;;7.69;100.00;98016.90;68009;1275;1015757;-78
2023/12/20 11:54:52;;;;;;;;;;;;;;;7.73;100.00;98021.02;68009;1275;1016199;-77
2023/12/20 11:57:55;;;;;;;;;;;;;;;7.63;100.00;98005.46;68018;1275;1016278;-78
2023/12/20 12:00:57;;;;;;;;;;;;;;;7.75;100.00;97999.84;67987;1275;1016246;-77
2023/12/20 12:04:00;;;;;;;;;;;;;;;7.77;100.00;97995.88;68015;1275;1016458;-77
2023/12/20 12:07:03;;;;;;;;;;;;;;;7.67;100.00;97994.02;68043;1275;1016420;-77
2023/12/20 12:10:05;;;;;;;;;;;;;;;7.69;100.00;97993.39;68080;1275;1016080;-77
2023/12/20 12:13:09;;;;;;;;;;;;;;;7.82;100.00;97992.59;68011;1275;1016439;-78
2023/12/20 12:16:12;;;;;;;;;;;;;;;7.86;100.00;98001.41;68051;1275;1016010;-76
2023/12/20 12:19:15;;;;;;;;;;;;;;;7.76;100.00;97996.75;68044;1275;1016446;-77
2023/12/20 12:22:38;;;;;;;;;;;;;;;7.72;100.00;97990.27;67997;1275;1018160;-78
2023/12/20 12:25:41;;;;;;;;;;;;;;;7.70;100.00;97988.48;68047;1275;1016368;-77
2023/12/20 12:28:43;;;;;;;;;;;;;;;7.88;100.00;97984.20;68065;1275;1016378;-77
2023/12/20 12:31:46;;;;;;;;;;;;;;;7.98;100.00;97978.71;68023;1275;1016295;-79
2023/12/20 12:34:49;;;;;;;;;;;;;;;7.75;100.00;97986.77;67999;1275;1016420;-77
2023/12/20 12:38:05;;;;;;;;;;;;;;;7.67;100.00;97990.76;68046;1275;1016419;-77
2023/12/20 12:41:08;;;;;;;;;;;;;;;7.67;100.00;97993.36;68024;1275;1016457;-77
2023/12/20 12:44:10;;;;;;;;;;;;;;;7.66;100.00;97995.67;68052;1275;1019945;-76
2023/12/20 12:47:13;;;;;;;;;;;;;;;7.75;100.00;97995.30;68034;1275;1016947;-77
2023/12/20 12:50:15;;;;;;;;;;;;;;;7.72;100.00;97994.82;68057;1275;1016469;-77
2023/12/20 12:53:18;;;;;;;;;;;;;;;7.76;100.00;97993.48;67985;1275;1016378;-77
2023/12/20 12:56:22;;;;;;;;;;;;;;;7.77;100.00;97989.41;67993;1275;1016379;-77
2023/12/20 12:59:25;;;;;;;;;;;;;;;7.80;100.00;97987.17;68046;1275;1016437;-77
2023/12/20 13:02:28;;;;;;;;;;;;;;;7.73;100.00;97983.92;68061;1275;1016933;-77
2023/12/20 13:05:31;;;;;;;;;;;;;;;7.60;100.00;97983.34;67984;1275;1016277;-76
2023/12/20 13:08:34;;;;;;;;;;;;;;;7.74;100.00;97985.09;68003;1275;1016685;-78
2023/12/20 13:11:37;;;;;;;;;;;;;;;7.70;100.00;97988.80;67995;1275;1016687;-77
2023/12/20 13:14:40;;;;;;;;;;;;;;;7.78;100.00;97990.04;68061;1275;1016129;-77
2023/12/20 13:17:43;;;;;;;;;;;;;;;7.81;100.00;97989.39;68032;1275;1016385;-77
2023/12/20 13:20:46;;;;;;;;;;;;;;;7.94;100.00;97983.82;68062;1275;1017729;-78
2023/12/20 13:23:48;;;;;;;;;;;;;;;8.05;100.00;97985.56;68012;1275;1016413;-78
2023/12/20 13:26:51;;;;;;;;;;;;;;;7.93;100.00;97986.87;67994;1275;1016540;-77
2023/12/20 13:29:54;;;;;;;;;;;;;;;7.79;100.00;97993.16;68047;1275;1016384;-77
2023/12/20 13:32:56;;;;;;;;;;;;;;;7.74;100.00;97987.20;68031;1275;1016487;-77
2023/12/20 13:35:59;;;;;;;;;;;;;;;7.99;100.00;97979.34;68015;1275;1016132;-77
2023/12/20 13:39:03;;;;;;;;;;;;;;;8.11;100.00;97974.40;68066;1275;1016302;-77
2023/12/20 13:42:05;;;;;;;;;;;;;;;8.32;100.00;97979.47;68014;1275;1016355;-77
2023/12/20 13:45:08;;;;;;;;;;;;;;;8.34;100.00;97980.24;68064;1275;1016886;-77
2023/12/20 13:48:11;;;;;;;;;;;;;;;8.28;100.00;97984.06;68014;1275;1016440;-77
2023/12/20 13:51:13;;;;;;;;;;;;;;;8.32;100.00;97976.67;67998;1275;1016348;-77
2023/12/20 13:54:19;;;;;;;;;;;;;;;8.36;100.00;97984.11;68077;1275;1016472;-77
2023/12/20 13:57:22;;;;;;;;;;;;;;;8.32;100.00;97986.44;67986;1275;1016507;-77
2023/12/20 14:00:25;;;;;;;;;;;;;;;8.21;100.00;97989.30;68010;1275;1016461;-77
2023/12/20 14:03:28;;;;;;;;;;;;;;;8.40;100.00;97989.92;68026;1275;1016239;-77
2023/12/20 14:06:30;;;;;;;;;;;;;;;8.43;100.00;97988.36;68028;1275;1016479;-76
2023/12/20 14:09:33;;;;;;;;;;;;;;;8.33;100.00;97994.92;67999;1275;1016480;-75
2023/12/20 14:12:37;;;;;;;;;;;;;;;8.35;100.00;97993.77;68005;1275;1016210;-77
2023/12/20 14:15:41;;;;;;;;;;;;;;;8.37;100.00;97991.18;67987;1275;1016449;-74
2023/12/20 14:18:43;;;;;;;;;;;;;;;8.45;100.00;97993.10;68009;1275;1016661;-76
2023/12/20 14:21:46;;;;;;;;;;;;;;;8.38;100.00;97997.92;67995;1275;1016655;-76
2023/12/20 14:24:49;;;;;;;;;;;;;;;8.29;100.00;98003.70;67972;1275;1016394;-77
2023/12/20 14:27:52;;;;;;;;;;;;;;;8.32;100.00;98000.92;67998;1275;1018851;-77
2023/12/20 14:30:57;;;;;;;;;;;;;;;8.29;100.00;97999.20;67989;1275;1018188;-77
2023/12/20 14:34:03;;;;;;;;;;;;;;;8.27;100.00;98004.88;68053;1275;1016164;-75
2023/12/20 14:37:08;;;;;;;;;;;;;;;8.23;100.00;98005.67;68018;1275;1016130;-76
2023/12/20 14:40:14;;;;;;;;;;;;;;;8.28;100.00;98005.02;68067;1275;1016741;-76
2023/12/20 14:43:17;;;;;;;;;;;;;;;8.25;100.00;97998.91;67985;1275;1016327;-76
2023/12/20 14:46:20;;;;;;;;;;;;;;;8.29;100.00;97998.69;68030;1275;1016164;-76
2023/12/20 14:49:22;;;;;;;;;;;;;;;8.06;100.00;97994.52;68081;1275;1018152;-76
2023/12/20 14:52:25;;;;;;;;;;;;;;;8.28;100.00;97987.20;68008;1275;1016572;-76
2023/12/20 14:55:29;;;;;;;;;;;;;;;8.27;100.00;97985.20;67989;1275;1016344;-76
2023/12/20 14:58:33;;;;;;;;;;;;;;;8.11;100.00;97990.74;68040;1275;1016763;-75
2023/12/20 15:01:36;;;;;;;;;;;;;;;8.11;100.00;97993.21;68054;1275;1016273;-76
2023/12/20 15:04:40;;;;;;;;;;;;;;;8.32;100.00;97991.30;68044;1275;1016362;-76
2023/12/20 15:07:44;;;;;;;;;;;;;;;8.21;100.00;97994.27;67985;1275;1016436;-76
2023/12/20 15:10:46;;;;;;;;;;;;;;;8.09;100.00;97984.30;68046;1275;1016081;-77
2023/12/20 15:13:54;;;;;;;;;;;;;;;8.04;100.00;97986.48;68019;1275;1016417;-76
2023/12/20 15:16:57;;;;;;;;;;;;;;;8.02;100.00;97985.45;68004;1275;1016462;-75
2023/12/20 15:20:00;;;;;;;;;;;;;;;8.06;100.00;97988.86;67937;1275;1019672;-76
2023/12/20 15:23:06;;;;;;;;;;;;;;;8.20;100.00;97981.65;68047;1275;1017659;-75
2023/12/20 15:26:10;;;;;;;;;;;;;;;8.19;100.00;97978.41;68029;1275;1020162;-76
2023/12/20 15:29:13;;;;;;;;;;;;;;;8.15;100.00;97968.17;68058;1275;1019293;-75